Antonio Narino Airport

Airport
ICAO code: 
SKPS
IATA Code: 
PSO
Summary
ICAO Region: 
CARSAM
Territory: 
Location: 
Chachagui, Narino Department
Serving: 
Pasto
Elevation: 
5951 ft
Coordinates: 
Aerial View: 
1° 23' 50.035" N, 77° 17' 25.877" W
Metar
Observation
SKPS 061500Z 35006KT 9999 6000N VCFG SCT010 18/17 Q1021 RMK A3017
Station
Pasto / Antonio Narin
Date/Time
2021-12-06 15:00:00
Wind direction
350°
Wind speed
06 kts
Lowest cloud amount
scattered clouds
Temperature
18°C
Dew point
17°C
Humidity
93%
QNH
1021 hPa
Weather condition
in vicinity: fog

Antonio Nariño Airport is located in the town of Chachagüí and serves the city of Pasto in the Nariño Department of Colombia. The airport is 35 km north of Pasto.

Climatology

Subtropical highland climate (Köppen climate classification Cwb)

Runways

Designator Length Width Surface Rops
2/20 2312 40 ASP No/No
Airport map: 
Aerial View: 

SKYbrary Partners:

Safety knowledge contributed by: